Time;durP1;ratioP1;P1;durP2;ratioP2;P2;SDS_P1;SDS_P2;PMS_P1;PMS_P2;Temp;Humidity;BMP_temperature;BMP_pressure;BME280_temperature;BME280_humidity;BME280_pressure;Samples;Min_cycle;Max_cycle;Signal;HPM_P1;HPM_P2
2022/01/21 00:01:15;;;;;;;3.30;2.40;;;;;;;0.40;69.83;98542.83;1714519;83;21004;-77
2022/01/21 00:03:41;;;;;;;7.17;3.87;;;;;;;0.39;70.09;98535.09;1714273;83;21067;-75
2022/01/21 00:06:08;;;;;;;4.10;3.03;;;;;;;0.38;70.26;98534.83;1661059;85;21165;-75
2022/01/21 00:08:36;;;;;;;4.50;2.70;;;;;;;0.36;70.41;98538.18;1704899;83;21019;-77
2022/01/21 00:11:04;;;;;;;3.40;3.10;;;;;;;0.32;70.57;98540.95;1670056;86;20931;-82
2022/01/21 00:13:35;;;;;;;3.60;2.40;;;;;;;0.28;70.64;98551.15;1677649;84;20988;-80
2022/01/21 00:16:07;;;;;;;3.60;2.87;;;;;;;0.24;70.89;98555.21;1649008;86;20963;-83
2022/01/21 00:18:38;;;;;;;5.70;2.70;;;;;;;0.23;71.09;98554.13;1700425;84;21012;-76
2022/01/21 00:32:07;;;;;;;3.60;2.93;;;;;;;0.08;71.20;98550.43;1670150;86;21545;-79
2022/01/21 00:34:35;;;;;;;4.47;2.83;;;;;;;0.08;71.38;98541.69;1677578;84;21015;-81
2022/01/21 00:37:03;;;;;;;6.37;3.90;;;;;;;0.08;71.34;98532.44;1669950;85;21074;-77
2022/01/21 00:39:33;;;;;;;5.77;3.77;;;;;;;0.08;71.54;98536.41;1672198;84;21115;-79
2022/01/21 00:42:28;;;;;;;6.67;4.20;;;;;;;0.09;71.53;98536.70;1674336;85;21062;-86
2022/01/21 00:44:38;;;;;;;5.73;3.30;;;;;;;0.06;71.41;98545.86;1677256;84;21185;-80
2022/01/21 00:47:06;;;;;;;4.13;3.47;;;;;;;0.03;71.39;98533.58;1670265;85;21019;-78
2022/01/21 00:49:33;;;;;;;8.23;5.13;;;;;;;0.02;71.29;98533.27;1679610;84;21000;-76
2022/01/21 00:51:59;;;;;;;4.20;3.43;;;;;;;0.00;71.29;98532.97;1698068;84;21488;-75
2022/01/21 00:54:28;;;;;;;5.90;4.60;;;;;;;-0.02;71.28;98543.46;1700825;84;20989;-75
2022/01/21 00:56:54;;;;;;;5.07;3.90;;;;;;;0.00;71.47;98542.75;1639223;87;21350;-76
2022/01/21 00:59:20;;;;;;;7.37;5.60;;;;;;;0.01;71.51;98532.45;1691540;84;21002;-73
2022/01/21 01:01:47;;;;;;;6.70;4.17;;;;;;;-0.02;71.48;98536.85;1694181;84;20927;-74
2022/01/21 01:04:14;;;;;;;6.17;4.20;;;;;;;-0.06;71.61;98531.69;1694250;84;20975;-74
2022/01/21 01:06:41;;;;;;;6.30;4.47;;;;;;;-0.08;71.77;98541.65;1692260;84;21020;-84
2022/01/21 01:09:07;;;;;;;8.57;4.07;;;;;;;-0.10;71.76;98551.13;1676220;85;21149;-82
2022/01/21 01:22:18;;;;;;;5.70;4.27;;;;;;;-0.22;70.95;98554.61;1649387;87;21036;-89
2022/01/21 01:29:58;;;;;;;8.23;4.13;;;;;;;-0.31;69.64;98565.11;1676791;85;21540;-88
2022/01/21 01:32:26;;;;;;;5.57;3.40;;;;;;;-0.41;69.46;98551.02;1676823;84;21042;-88
2022/01/21 01:34:55;;;;;;;8.50;3.87;;;;;;;-0.43;69.34;98545.65;1649035;86;21169;-77
2022/01/21 01:40:14;;;;;;;7.87;4.53;;;;;;;-0.47;68.87;98533.34;1680601;84;21039;-76
2022/01/21 01:50:39;;;;;;;6.43;4.10;;;;;;;-0.44;68.19;98532.95;1681462;84;20998;-83
2022/01/21 01:53:07;;;;;;;7.60;4.53;;;;;;;-0.50;67.58;98553.07;1681485;84;21040;-84
2022/01/21 01:55:35;;;;;;;8.40;4.17;;;;;;;-0.54;67.71;98549.73;1680654;84;21034;-83
2022/01/21 01:58:03;;;;;;;6.40;4.70;;;;;;;-0.56;67.78;98537.23;1676452;84;21015;-86
2022/01/21 02:00:30;;;;;;;6.13;4.27;;;;;;;-0.59;67.67;98546.90;1698686;84;21082;-86
2022/01/21 02:03:07;;;;;;;7.07;3.97;;;;;;;-0.63;67.33;98544.38;1698517;84;21516;-91
2022/01/21 02:05:34;;;;;;;17.37;4.27;;;;;;;-0.65;67.20;98533.20;1656978;85;21544;-82
2022/01/21 02:08:01;;;;;;;5.53;3.70;;;;;;;-0.69;66.58;98538.59;1671777;85;21007;-83
2022/01/21 02:10:28;;;;;;;5.77;3.67;;;;;;;-0.77;66.20;98536.98;1669847;84;21055;-85
2022/01/21 02:13:03;;;;;;;5.53;3.30;;;;;;;-0.79;66.41;98515.77;1675924;84;22307;-85
2022/01/21 02:15:25;;;;;;;5.77;3.40;;;;;;;-0.79;66.47;98522.36;1671259;85;21040;-80
2022/01/21 02:23:12;;;;;;;4.33;3.37;;;;;;;-0.85;66.22;98518.71;1656341;85;21035;-75
2022/01/21 02:25:38;;;;;;;4.23;3.23;;;;;;;-0.88;66.11;98521.77;1671590;85;21228;-73
2022/01/21 02:28:05;;;;;;;4.13;3.40;;;;;;;-0.91;66.18;98512.92;1670884;84;21000;-74
2022/01/21 02:30:33;;;;;;;7.23;3.50;;;;;;;-0.91;66.29;98508.97;1656518;85;21142;-75
2022/01/21 02:32:59;;;;;;;6.70;3.70;;;;;;;-0.93;66.12;98516.30;1644762;85;21077;-76
2022/01/21 02:35:26;;;;;;;7.40;3.53;;;;;;;-0.98;66.00;98516.09;1645101;87;21500;-74
2022/01/21 02:37:53;;;;;;;7.17;3.60;;;;;;;-1.03;66.13;98512.75;1644898;85;21168;-74
2022/01/21 02:40:19;;;;;;;9.80;4.67;;;;;;;-1.05;66.14;98512.14;1654365;85;21042;-74
2022/01/21 02:42:46;;;;;;;6.67;3.40;;;;;;;-1.06;66.14;98505.77;1669135;85;21126;-76
2022/01/21 02:45:17;;;;;;;6.13;2.97;;;;;;;-1.10;66.03;98522.48;1670923;85;21031;-76
2022/01/21 02:47:43;;;;;;;8.10;3.40;;;;;;;-1.12;65.97;98503.94;1620698;85;21019;-75
2022/01/21 02:50:10;;;;;;;5.70;3.73;;;;;;;-1.17;65.99;98509.82;1687481;85;21777;-75
2022/01/21 02:52:42;;;;;;;9.33;3.57;;;;;;;-1.17;65.72;98511.14;1688830;84;21028;-78
2022/01/21 02:55:09;;;;;;;12.47;3.40;;;;;;;-1.19;65.54;98509.70;1676683;83;21122;-77
2022/01/21 02:57:35;;;;;;;4.13;2.97;;;;;;;-1.20;65.42;98508.11;1652256;84;21479;-77
2022/01/21 03:00:01;;;;;;;5.50;3.47;;;;;;;-1.20;65.38;98507.57;1643575;85;21077;-77
2022/01/21 03:02:28;;;;;;;5.47;3.37;;;;;;;-1.21;65.46;98504.66;1609981;87;21830;-75
2022/01/21 03:05:03;;;;;;;5.57;3.07;;;;;;;-1.23;65.63;98500.08;1693487;84;21046;-73
2022/01/21 03:07:23;;;;;;;5.27;3.50;;;;;;;-1.25;65.80;98487.62;1670356;85;21639;-70
2022/01/21 03:09:49;;;;;;;4.73;3.23;;;;;;;-1.27;66.00;98490.95;1696587;84;21616;-73
2022/01/21 03:12:17;;;;;;;7.10;3.50;;;;;;;-1.29;66.21;98516.70;1648946;85;21576;-75
2022/01/21 03:14:43;;;;;;;5.00;3.50;;;;;;;-1.31;66.38;98473.92;1670490;85;21107;-72
2022/01/21 03:17:09;;;;;;;9.47;4.93;;;;;;;-1.34;66.53;98483.03;1679130;84;21036;-72
2022/01/21 03:19:37;;;;;;;5.83;4.00;;;;;;;-1.35;66.66;98484.07;1670701;85;21007;-76
2022/01/21 03:22:04;;;;;;;4.23;3.63;;;;;;;-1.35;66.78;98476.16;1670897;85;21070;-76
2022/01/21 03:24:31;;;;;;;6.03;3.77;;;;;;;-1.33;66.92;98465.39;1668342;85;21074;-76
2022/01/21 03:26:58;;;;;;;7.83;3.53;;;;;;;-1.33;66.88;98471.98;1666803;86;21216;-79
2022/01/21 03:29:26;;;;;;;8.40;3.97;;;;;;;-1.34;66.80;98454.53;1662820;84;20996;-77
2022/01/21 03:31:53;;;;;;;4.93;3.73;;;;;;;-1.36;66.98;98456.08;1695988;84;20984;-75
2022/01/21 03:34:19;;;;;;;6.13;3.90;;;;;;;-1.39;66.98;98445.92;1670633;85;21035;-73
2022/01/21 03:36:46;;;;;;;5.33;3.93;;;;;;;-1.40;66.91;98464.09;1670667;85;21547;-72
2022/01/21 03:39:12;;;;;;;5.47;3.07;;;;;;;-1.38;66.85;98450.69;1668679;85;21773;-71
2022/01/21 03:41:39;;;;;;;5.90;4.37;;;;;;;-1.38;66.84;98449.37;1668755;86;21051;-72
2022/01/21 03:44:07;;;;;;;4.70;3.37;;;;;;;-1.43;66.57;98444.70;1690679;84;21694;-79
2022/01/21 03:46:34;;;;;;;4.93;2.87;;;;;;;-1.41;66.66;98453.74;1653338;84;21064;-79
2022/01/21 03:49:03;;;;;;;5.37;3.70;;;;;;;-1.41;66.61;98435.28;1693627;84;21095;-75
2022/01/21 03:51:29;;;;;;;10.70;4.37;;;;;;;-1.38;66.71;98448.05;1647806;85;21558;-76
2022/01/21 03:53:55;;;;;;;10.70;3.77;;;;;;;-1.39;66.28;98445.13;1617035;88;21064;-78
2022/01/21 03:56:24;;;;;;;6.30;3.50;;;;;;;-1.36;66.51;98423.63;1654025;85;21096;-82
2022/01/21 03:58:51;;;;;;;6.37;3.40;;;;;;;-1.32;66.54;98440.65;1620661;87;21041;-79
2022/01/21 04:01:18;;;;;;;7.10;3.73;;;;;;;-1.27;66.51;98424.21;1648446;85;21080;-76
2022/01/21 04:03:44;;;;;;;5.27;3.30;;;;;;;-1.24;66.26;98433.84;1655381;86;21184;-78
2022/01/21 04:06:11;;;;;;;5.20;4.10;;;;;;;-1.22;66.40;98430.50;1676803;83;21032;-78
2022/01/21 04:08:37;;;;;;;6.13;3.20;;;;;;;-1.18;66.36;98428.25;1670866;85;21090;-79
2022/01/21 04:11:04;;;;;;;5.93;3.00;;;;;;;-1.19;65.98;98426.62;1644122;86;21040;-80
2022/01/21 04:13:34;;;;;;;6.53;3.33;;;;;;;-1.19;66.18;98430.58;1673022;85;21079;-79
2022/01/21 04:16:02;;;;;;;4.63;3.57;;;;;;;-1.24;66.20;98436.47;1649326;85;21111;-75
2022/01/21 04:18:32;;;;;;;5.30;4.20;;;;;;;-1.22;66.36;98429.69;1679247;84;21029;-70
2022/01/21 04:21:02;;;;;;;5.57;4.00;;;;;;;-1.23;66.50;98414.87;1660606;84;21008;-72
2022/01/21 04:23:31;;;;;;;8.03;3.77;;;;;;;-1.21;66.68;98414.17;1691374;84;21115;-72
2022/01/21 04:25:57;;;;;;;10.07;3.57;;;;;;;-1.23;67.01;98428.05;1672122;85;21071;-71
2022/01/21 04:28:24;;;;;;;8.07;4.43;;;;;;;-1.28;67.35;98417.31;1653381;86;21064;-72
2022/01/21 04:30:51;;;;;;;8.37;3.60;;;;;;;-1.33;67.70;98419.25;1680075;85;21502;-73
2022/01/21 04:33:19;;;;;;;6.60;3.70;;;;;;;-1.35;67.93;98426.56;1642058;86;21062;-73
2022/01/21 04:35:48;;;;;;;4.03;3.47;;;;;;;-1.38;68.48;98426.95;1684710;83;21045;-72
2022/01/21 04:38:18;;;;;;;3.57;3.10;;;;;;;-1.40;68.75;98445.64;1683828;85;21041;-72
2022/01/21 04:40:51;;;;;;;9.13;4.17;;;;;;;-1.46;69.54;98445.13;1647852;85;21046;-71
2022/01/21 04:48:41;;;;;;;6.80;4.00;;;;;;;-1.50;70.96;98439.14;1670857;85;21051;-72
2022/01/21 04:51:28;;;;;;;3.93;3.00;;;;;;;-1.52;71.16;98426.16;1693772;84;21040;-72
2022/01/21 04:53:40;;;;;;;8.63;4.07;;;;;;;-1.49;71.70;98450.81;1685218;83;21164;-71
2022/01/21 04:56:11;;;;;;;6.37;3.90;;;;;;;-1.49;72.45;98437.63;1688993;83;21066;-72
2022/01/21 04:58:39;;;;;;;7.63;4.43;;;;;;;-1.51;72.93;98431.74;1701412;83;21561;-71
2022/01/21 05:01:06;;;;;;;7.83;4.20;;;;;;;-1.48;73.15;98429.19;1689607;84;21043;-71
2022/01/21 05:03:34;;;;;;;6.47;3.90;;;;;;;-1.46;73.50;98415.31;1670172;84;21118;-72
2022/01/21 05:06:01;;;;;;;6.20;5.03;;;;;;;-1.48;73.91;98441.05;1675463;85;21169;-72
2022/01/21 05:11:06;;;;;;;6.47;3.90;;;;;;;-1.47;74.42;98429.50;1620559;85;21094;-71
2022/01/21 05:13:40;;;;;;;8.57;4.03;;;;;;;-1.50;74.87;98431.23;1675399;84;20982;-71
2022/01/21 05:16:09;;;;;;;9.00;4.17;;;;;;;-1.52;75.15;98419.56;1682028;84;21063;-72
2022/01/21 05:18:33;;;;;;;9.93;4.50;;;;;;;-1.56;75.45;98415.72;1630261;87;21890;-71
2022/01/21 05:21:18;;;;;;;6.37;3.23;;;;;;;-1.53;75.62;98415.30;1688844;84;21000;-70
2022/01/21 05:23:46;;;;;;;7.07;4.13;;;;;;;-1.53;75.73;98421.89;1651452;85;21085;-69
2022/01/21 05:26:13;;;;;;;15.30;3.57;;;;;;;-1.51;75.92;98416.42;1708494;84;21008;-70
2022/01/21 05:28:40;;;;;;;5.63;4.07;;;;;;;-1.50;76.04;98414.10;1678132;85;21580;-70
2022/01/21 05:31:08;;;;;;;5.30;4.37;;;;;;;-1.51;76.16;98416.42;1702506;82;21332;-70
2022/01/21 05:33:42;;;;;;;7.53;4.83;;;;;;;-1.54;76.42;98408.94;1711708;82;20980;-69
2022/01/21 05:36:27;;;;;;;7.73;3.93;;;;;;;-1.58;76.62;98419.59;1699872;84;20933;-69
2022/01/21 05:39:01;;;;;;;11.47;3.67;;;;;;;-1.58;77.08;98415.64;1681855;84;21103;-70
2022/01/21 05:41:29;;;;;;;9.63;4.37;;;;;;;-1.60;77.37;98432.97;1700038;84;21052;-70
2022/01/21 05:44:13;;;;;;;5.33;3.80;;;;;;;-1.63;77.69;98436.52;1720666;83;21886;-72
2022/01/21 05:46:55;;;;;;;8.80;4.77;;;;;;;-1.62;77.76;98423.63;1621497;83;21095;-73
2022/01/21 05:49:35;;;;;;;9.27;4.47;;;;;;;-1.60;77.90;98444.83;1722526;82;21024;-72
2022/01/21 05:52:27;;;;;;;8.07;4.00;;;;;;;-1.60;77.78;98440.88;1704956;82;21017;-73
2022/01/21 05:54:59;;;;;;;6.33;4.00;;;;;;;-1.58;77.97;98438.83;1641256;85;21110;-71
2022/01/21 05:57:30;;;;;;;8.10;4.20;;;;;;;-1.55;78.13;98446.34;1716010;82;21496;-69
2022/01/21 05:59:58;;;;;;;6.73;4.33;;;;;;;-1.53;78.15;98446.94;1672541;84;21037;-70
2022/01/21 06:02:25;;;;;;;8.10;4.57;;;;;;;-1.52;78.15;98433.25;1699971;84;21556;-69
2022/01/21 06:04:52;;;;;;;6.83;4.80;;;;;;;-1.48;78.26;98431.33;1695870;84;21043;-70
2022/01/21 06:07:19;;;;;;;8.03;5.57;;;;;;;-1.48;78.50;98450.28;1672720;84;21072;-70
2022/01/21 06:09:47;;;;;;;11.63;5.37;;;;;;;-1.47;78.52;98422.41;1699520;83;21222;-70
2022/01/21 06:12:13;;;;;;;5.03;4.03;;;;;;;-1.48;78.79;98426.05;1695830;84;21048;-70
2022/01/21 06:14:40;;;;;;;6.17;3.80;;;;;;;-1.46;79.02;98432.45;1700401;82;21060;-71
2022/01/21 06:17:07;;;;;;;9.37;5.23;;;;;;;-1.47;79.01;98406.59;1695812;84;21130;-68
2022/01/21 06:19:33;;;;;;;8.77;4.63;;;;;;;-1.47;79.11;98428.19;1651218;84;21127;-71
2022/01/21 06:22:00;;;;;;;4.67;4.03;;;;;;;-1.48;79.13;98418.64;1695971;84;21345;-71
2022/01/21 06:24:26;;;;;;;11.57;5.43;;;;;;;-1.48;79.08;98429.19;1695784;84;21016;-71
2022/01/21 06:26:59;;;;;;;6.23;4.47;;;;;;;-1.45;79.03;98440.66;1700511;82;21104;-73
2022/01/21 06:29:24;;;;;;;12.43;4.57;;;;;;;-1.45;78.83;98428.80;1673515;84;21073;-71
2022/01/21 06:31:50;;;;;;;5.90;4.40;;;;;;;-1.43;78.80;98428.08;1700304;84;21008;-71
2022/01/21 06:34:17;;;;;;;5.00;4.50;;;;;;;-1.44;78.67;98421.20;1700538;82;21222;-70
2022/01/21 06:36:43;;;;;;;7.77;4.90;;;;;;;-1.41;78.66;98421.60;1705014;82;21124;-72
2022/01/21 06:39:09;;;;;;;8.73;4.33;;;;;;;-1.39;78.68;98425.36;1700494;84;21068;-69
2022/01/21 06:41:35;;;;;;;6.10;4.67;;;;;;;-1.38;78.70;98434.36;1697603;84;20972;-71
2022/01/21 06:44:02;;;;;;;5.10;4.37;;;;;;;-1.35;78.73;98428.70;1701737;84;21024;-76
2022/01/21 06:46:29;;;;;;;6.37;4.67;;;;;;;-1.35;78.75;98439.75;1701319;84;21212;-72
2022/01/21 06:48:55;;;;;;;7.17;3.90;;;;;;;-1.33;78.80;98420.56;1701808;84;20963;-73
2022/01/21 06:51:22;;;;;;;6.13;4.10;;;;;;;-1.35;78.73;98437.92;1709983;82;21037;-72
2022/01/21 06:53:48;;;;;;;7.57;4.93;;;;;;;-1.33;78.66;98432.43;1699939;84;21068;-70
2022/01/21 06:56:14;;;;;;;6.00;4.20;;;;;;;-1.34;78.63;98426.34;1700611;82;21597;-74
2022/01/21 06:58:41;;;;;;;7.17;4.60;;;;;;;-1.32;78.43;98430.10;1700049;83;21153;-71
2022/01/21 07:01:07;;;;;;;7.23;4.63;;;;;;;-1.31;78.25;98433.05;1699749;83;21031;-73
2022/01/21 07:03:33;;;;;;;8.73;3.97;;;;;;;-1.30;78.33;98432.04;1711782;83;21059;-73
2022/01/21 07:06:00;;;;;;;9.53;4.33;;;;;;;-1.27;77.99;98431.62;1714411;83;21560;-69
2022/01/21 07:08:27;;;;;;;4.87;4.13;;;;;;;-1.28;77.96;98426.54;1714728;83;20996;-74
2022/01/21 07:10:53;;;;;;;6.83;4.63;;;;;;;-1.29;77.95;98426.27;1714473;83;22398;-71
2022/01/21 07:13:20;;;;;;;6.87;4.63;;;;;;;-1.30;77.75;98444.41;1705457;83;21020;-70
2022/01/21 07:15:46;;;;;;;8.57;5.27;;;;;;;-1.32;77.77;98423.52;1651528;85;21505;-69
2022/01/21 07:18:12;;;;;;;5.63;4.57;;;;;;;-1.29;77.85;98434.95;1676569;84;21547;-69
2022/01/21 07:20:39;;;;;;;8.30;4.43;;;;;;;-1.26;77.77;98422.70;1698139;83;21021;-70
2022/01/21 07:23:05;;;;;;;7.00;5.20;;;;;;;-1.22;77.46;98421.27;1698376;84;21113;-68
2022/01/21 07:25:31;;;;;;;6.63;4.30;;;;;;;-1.21;77.19;98453.22;1721097;83;20949;-71
2022/01/21 07:27:58;;;;;;;11.23;4.60;;;;;;;-1.19;76.91;98435.35;1720240;83;21055;-70
2022/01/21 07:30:24;;;;;;;6.50;4.67;;;;;;;-1.17;76.94;98438.61;1698185;83;21573;-71
2022/01/21 07:32:50;;;;;;;9.20;4.80;;;;;;;-1.14;76.93;98461.11;1698092;84;21064;-69
2022/01/21 07:35:19;;;;;;;7.53;4.90;;;;;;;-1.10;76.89;98435.94;1698111;83;21274;-72
2022/01/21 07:37:46;;;;;;;11.33;5.53;;;;;;;-1.07;76.83;98444.78;1714219;83;21118;-70
2022/01/21 07:40:13;;;;;;;7.23;4.87;;;;;;;-1.06;76.76;98451.18;1729251;83;21016;-75
2022/01/21 07:42:39;;;;;;;9.17;5.70;;;;;;;-1.07;76.63;98440.31;1702584;83;21012;-73
2022/01/21 07:45:05;;;;;;;10.07;5.97;;;;;;;-1.07;76.81;98454.83;1676555;84;21080;-72
2022/01/21 07:47:32;;;;;;;4.73;4.20;;;;;;;-1.07;76.95;98452.19;1676119;84;21103;-75
2022/01/21 07:49:58;;;;;;;6.67;4.80;;;;;;;-1.07;77.05;98475.93;1698355;84;21533;-71
2022/01/21 07:52:25;;;;;;;7.87;5.03;;;;;;;-1.05;77.16;98466.47;1698184;84;21592;-70
2022/01/21 07:54:51;;;;;;;6.43;4.37;;;;;;;-1.04;77.35;98447.81;1700381;83;21464;-70
2022/01/21 07:57:17;;;;;;;11.87;7.30;;;;;;;-1.05;77.38;98469.11;1699606;84;21505;-74
2022/01/21 07:59:44;;;;;;;9.57;5.43;;;;;;;-1.06;77.66;98443.77;1693085;84;21019;-73
2022/01/21 08:02:10;;;;;;;12.33;5.07;;;;;;;-1.08;78.27;98440.01;1644054;86;21575;-72
2022/01/21 08:04:37;;;;;;;9.43;5.17;;;;;;;-1.11;78.32;98434.34;1670563;85;21098;-72
2022/01/21 08:07:05;;;;;;;12.10;6.87;;;;;;;-1.07;78.33;98431.08;1688657;84;21123;-72
2022/01/21 08:09:32;;;;;;;7.07;5.03;;;;;;;-1.04;78.21;98428.53;1645285;86;21039;-73
2022/01/21 08:11:58;;;;;;;7.27;5.77;;;;;;;-1.03;78.07;98438.88;1670458;85;21148;-73
2022/01/21 08:14:24;;;;;;;11.07;6.30;;;;;;;-0.99;77.83;98450.64;1688610;85;21137;-73
2022/01/21 08:16:53;;;;;;;9.57;5.63;;;;;;;-1.01;77.76;98418.36;1642981;87;20998;-74
2022/01/21 08:19:21;;;;;;;10.37;6.23;;;;;;;-1.00;77.68;98435.00;1670480;85;21588;-75
2022/01/21 08:21:49;;;;;;;9.73;5.37;;;;;;;-1.00;77.62;98439.78;1688669;84;21510;-74
2022/01/21 08:24:15;;;;;;;6.43;5.00;;;;;;;-0.98;77.65;98429.03;1649321;86;21919;-72
2022/01/21 08:26:41;;;;;;;7.67;5.00;;;;;;;-0.98;77.39;98431.67;1671996;85;21596;-71
2022/01/21 08:29:08;;;;;;;6.20;4.60;;;;;;;-0.98;77.23;98458.86;1710861;82;21517;-74
2022/01/21 08:31:34;;;;;;;7.47;5.80;;;;;;;-0.96;77.12;98452.07;1691031;83;21072;-72
2022/01/21 08:34:01;;;;;;;8.47;5.83;;;;;;;-0.94;77.37;98418.36;1641188;87;21114;-73
2022/01/21 08:36:27;;;;;;;7.33;5.63;;;;;;;-0.95;77.56;98419.37;1666566;84;21781;-74
2022/01/21 08:38:54;;;;;;;10.80;5.50;;;;;;;-0.94;77.52;98415.72;1643286;86;21105;-74
2022/01/21 08:41:21;;;;;;;9.00;4.83;;;;;;;-0.91;77.83;98421.89;1706623;83;21515;-71
2022/01/21 08:43:49;;;;;;;7.17;4.47;;;;;;;-0.92;77.78;98439.58;1658259;85;21628;-74
2022/01/21 08:46:15;;;;;;;7.67;5.17;;;;;;;-0.91;77.84;98429.30;1668242;84;21561;-73
2022/01/21 08:48:41;;;;;;;10.03;4.80;;;;;;;-0.89;77.90;98412.77;1667330;86;21919;-74
2022/01/21 08:51:12;;;;;;;8.07;4.57;;;;;;;-0.85;77.89;98432.94;1666484;86;21012;-73
2022/01/21 08:53:41;;;;;;;6.87;5.63;;;;;;;-0.80;77.79;98441.55;1648114;86;20965;-72
2022/01/21 08:56:12;;;;;;;7.97;4.73;;;;;;;-0.75;77.76;98437.78;1640363;87;21081;-74
2022/01/21 08:58:40;;;;;;;5.40;4.40;;;;;;;-0.74;77.73;98445.50;1644680;86;21714;-71
2022/01/21 09:01:06;;;;;;;6.90;5.00;;;;;;;-0.73;77.66;98485.41;1700987;84;21830;-74
2022/01/21 09:03:33;;;;;;;10.00;6.33;;;;;;;-0.71;77.64;98438.48;1710215;83;21043;-73
2022/01/21 09:05:59;;;;;;;8.03;4.77;;;;;;;-0.69;77.24;98424.58;1698162;84;20928;-73
2022/01/21 09:08:28;;;;;;;14.03;5.73;;;;;;;-0.66;77.17;98418.87;1684517;84;21051;-70
2022/01/21 09:10:54;;;;;;;5.77;4.27;;;;;;;-0.68;76.82;98406.41;1694344;83;21140;-75
2022/01/21 09:13:22;;;;;;;8.80;5.57;;;;;;;-0.63;76.58;98418.98;1699477;84;21128;-75
2022/01/21 09:15:49;;;;;;;7.17;4.83;;;;;;;-0.63;75.96;98418.98;1705828;82;20957;-72
2022/01/21 09:18:19;;;;;;;9.33;4.50;;;;;;;-0.60;76.02;98410.63;1728386;82;21011;-74
2022/01/21 09:20:48;;;;;;;8.17;4.77;;;;;;;-0.56;75.93;98413.95;1701992;82;21066;-73
2022/01/21 09:23:14;;;;;;;7.33;5.67;;;;;;;-0.58;75.26;98408.59;1703910;82;21080;-72
2022/01/21 09:25:41;;;;;;;13.47;5.63;;;;;;;-0.61;74.75;98426.16;1655254;85;21510;-75
2022/01/21 09:28:07;;;;;;;9.13;5.07;;;;;;;-0.64;74.77;98387.80;1643296;86;21060;-74
2022/01/21 09:30:34;;;;;;;14.57;5.77;;;;;;;-0.61;74.93;98405.04;1689319;84;20988;-72
2022/01/21 09:33:01;;;;;;;10.80;4.43;;;;;;;-0.65;74.65;98382.22;1713102;83;21055;-72
2022/01/21 09:35:28;;;;;;;7.40;4.10;;;;;;;-0.66;74.73;98386.38;1702507;83;21054;-75
2022/01/21 09:37:54;;;;;;;11.47;6.73;;;;;;;-0.68;74.79;98414.83;1721600;83;21145;-69
2022/01/21 09:40:23;;;;;;;12.00;5.37;;;;;;;-0.67;74.67;98425.16;1658559;85;21043;-71
2022/01/21 09:42:52;;;;;;;11.73;4.63;;;;;;;-0.67;74.81;98430.98;1634191;87;21027;-74
2022/01/21 09:45:22;;;;;;;11.80;4.87;;;;;;;-0.65;74.74;98384.05;1700051;83;21091;-74
2022/01/21 09:47:49;;;;;;;10.30;5.80;;;;;;;-0.64;75.49;98396.23;1678485;83;21024;-72
2022/01/21 09:50:17;;;;;;;4.70;4.00;;;;;;;-0.63;75.90;98381.52;1705083;84;21209;-72
2022/01/21 09:52:48;;;;;;;23.00;5.13;;;;;;;-0.61;75.95;98390.52;1703472;83;20988;-75
2022/01/21 09:55:20;;;;;;;14.07;4.97;;;;;;;-0.63;76.07;98392.58;1717210;83;20975;-73
2022/01/21 09:57:52;;;;;;;8.27;5.93;;;;;;;-0.61;76.38;98387.38;1679020;85;21023;-74
2022/01/21 10:00:20;;;;;;;8.48;5.55;;;;;;;-0.64;76.82;98383.03;1721720;82;21024;-76
2022/01/21 10:02:48;;;;;;;12.67;5.20;;;;;;;-0.66;77.73;98380.59;1700732;83;21590;-75
2022/01/21 10:05:14;;;;;;;9.33;4.90;;;;;;;-0.66;78.70;98394.30;1698573;84;21138;-74
2022/01/21 10:07:44;;;;;;;10.00;5.90;;;;;;;-0.63;79.79;98390.75;1699637;84;20983;-74
2022/01/21 10:10:13;;;;;;;10.00;5.33;;;;;;;-0.64;80.27;98396.23;1683724;83;21020;-75
2022/01/21 10:12:40;;;;;;;11.13;6.07;;;;;;;-0.66;80.68;98379.27;1644909;85;21048;-75
2022/01/21 10:15:07;;;;;;;7.97;5.40;;;;;;;-0.65;81.08;98391.96;1641943;85;32602;-75
2022/01/21 10:17:37;;;;;;;14.60;5.67;;;;;;;-0.67;81.99;98388.20;1653915;85;21014;-77
2022/01/21 10:20:17;;;;;;;7.60;4.97;;;;;;;-0.69;82.11;98379.70;1667894;85;21012;-79
2022/01/21 10:23:08;;;;;;;7.67;5.27;;;;;;;-0.69;82.71;98381.53;1673915;85;21102;-76
2022/01/21 10:25:37;;;;;;;7.87;4.97;;;;;;;-0.69;83.00;98386.81;1696842;84;21028;-75
2022/01/21 10:28:17;;;;;;;9.93;6.77;;;;;;;-0.70;83.19;98375.94;1675951;85;21096;-72
2022/01/21 10:30:46;;;;;;;9.57;5.77;;;;;;;-0.70;83.25;98367.52;1695567;84;20984;-73
2022/01/21 10:33:24;;;;;;;10.20;5.97;;;;;;;-0.67;83.42;98377.64;1693036;84;21118;-73
2022/01/21 10:36:12;;;;;;;9.63;6.30;;;;;;;-0.63;83.36;98359.58;1675382;84;21064;-73
2022/01/21 10:38:45;;;;;;;10.97;5.97;;;;;;;-0.60;83.41;98357.83;1709008;83;21494;-76
2022/01/21 10:41:15;;;;;;;;;;;;;;;-0.64;83.27;98346.88;1680508;85;21858;-73
2022/01/21 10:43:43;;;;;;;8.70;5.97;;;;;;;-0.60;83.28;98359.95;1698967;84;20122;-75
2022/01/21 10:46:15;;;;;;;10.63;5.67;;;;;;;-0.66;83.68;98365.26;1699817;84;21079;-72
2022/01/21 10:49:04;;;;;;;6.72;5.90;;;;;;;-0.68;83.96;98371.27;1702588;83;21183;-76
2022/01/21 10:51:36;;;;;;;12.43;6.47;;;;;;;-0.65;84.10;98373.48;1687349;83;21126;-75
2022/01/21 10:54:22;;;;;;;10.40;5.30;;;;;;;-0.62;83.65;98355.39;1700147;84;21292;-80
2022/01/21 10:57:15;;;;;;;17.37;6.17;;;;;;;-0.65;83.04;98363.73;1698379;84;21548;-72
2022/01/21 11:00:05;;;;;;;8.20;6.37;;;;;;;-0.63;82.98;98365.67;1698441;84;20993;-75
2022/01/21 11:02:52;;;;;;;15.77;6.43;;;;;;;-0.58;83.06;98362.40;1687276;84;21033;-83
2022/01/21 11:05:36;;;;;;;11.43;6.92;;;;;;;-0.58;82.82;98376.92;1700240;84;21045;-79
2022/01/21 11:08:08;;;;;;;10.73;6.43;;;;;;;-0.59;82.11;98360.77;1698560;83;21156;-77
2022/01/21 11:10:40;;;;;;;17.53;8.47;;;;;;;-0.62;82.06;98358.53;1674004;84;21020;-83
2022/01/21 11:13:20;;;;;;;9.27;5.97;;;;;;;-0.63;81.65;98353.79;1693397;84;21000;-82
2022/01/21 11:15:54;;;;;;;11.43;5.17;;;;;;;-0.58;81.75;98357.12;1721530;83;21040;-82
2022/01/21 11:18:21;;;;;;;;;;;;;;;-0.55;81.90;98358.00;1676674;84;21108;-76
2022/01/21 11:21:05;;;;;;;14.60;5.30;;;;;;;-0.57;82.13;98351.61;1699612;83;21323;-78
2022/01/21 11:23:28;;;;;;;15.13;5.77;;;;;;;-0.59;82.04;98379.25;1654712;84;21004;-75
2022/01/21 11:25:58;;;;;;;23.87;5.40;;;;;;;-0.62;82.12;98350.61;1699817;84;21314;-74
2022/01/21 11:28:48;;;;;;;12.33;5.57;;;;;;;-0.67;82.04;98355.20;1700264;84;21104;-76
2022/01/21 11:31:19;;;;;;;7.57;6.03;;;;;;;-0.69;82.09;98351.17;1699679;83;21103;-75
2022/01/21 11:33:47;;;;;;;;;;;;;;;-0.69;82.16;98348.53;1650699;86;21003;-76
2022/01/21 11:36:14;;;;;;;13.23;5.33;;;;;;;-0.71;82.06;98362.44;1650718;87;20191;-76
2022/01/21 11:38:44;;;;;;;9.43;4.77;;;;;;;-0.75;82.17;98344.90;1653501;85;21050;-77
2022/01/21 11:41:13;;;;;;;12.53;4.77;;;;;;;-0.77;82.57;98370.71;1675791;85;20944;-80
2022/01/21 11:43:49;;;;;;;11.97;5.60;;;;;;;-0.76;82.61;98367.03;1675799;85;20966;-80
2022/01/21 11:48:57;;;;;;;12.93;5.20;;;;;;;-0.75;82.72;98372.61;1648712;85;21122;-80
2022/01/21 11:51:28;;;;;;;16.83;5.10;;;;;;;-0.77;82.96;98356.20;1675289;85;21110;-80
2022/01/21 11:54:08;;;;;;;19.77;6.17;;;;;;;-0.79;83.15;98351.62;1676075;85;21622;-83
2022/01/21 11:56:46;;;;;;;13.90;4.53;;;;;;;-0.78;83.46;98353.25;1675438;85;21090;-81
2022/01/21 12:01:58;;;;;;;17.30;5.47;;;;;;;-0.79;84.05;98349.48;1699429;84;21020;-80
2022/01/21 12:04:51;;;;;;;24.33;5.77;;;;;;;-0.84;84.36;98337.44;1700247;83;21102;-78
2022/01/21 12:07:41;;;;;;;8.83;6.93;;;;;;;-0.84;84.15;98346.67;1699918;84;20953;-76
2022/01/21 12:10:21;;;;;;;27.13;5.60;;;;;;;-0.87;83.63;98347.91;1699220;83;21770;-80
2022/01/21 12:13:00;;;;;;;5.93;3.87;;;;;;;-0.84;83.21;98354.08;1699735;84;21167;-78
2022/01/21 12:19:08;;;;;;;15.18;3.80;;;;;;;-0.83;80.28;98396.61;1699869;84;26939;-78
2022/01/21 12:21:30;;;;;;;14.93;4.97;;;;;;;-0.79;79.56;98345.02;1696084;84;21111;-86
2022/01/21 12:23:59;;;;;;;9.37;4.37;;;;;;;-0.74;79.25;98350.48;1700024;84;21083;-76
2022/01/21 12:26:29;;;;;;;6.67;4.43;;;;;;;-0.68;79.03;98354.93;1700024;84;22091;-78
2022/01/21 12:29:02;;;;;;;9.57;5.33;;;;;;;-0.64;77.99;98397.55;1696437;84;21589;-78
2022/01/21 12:31:49;;;;;;;8.13;3.50;;;;;;;-0.63;77.26;98384.66;1672419;84;21041;-77
2022/01/21 12:34:20;;;;;;;9.17;4.47;;;;;;;-0.62;77.14;98350.11;1698830;84;21551;-80
2022/01/21 12:36:54;;;;;;;13.30;4.13;;;;;;;-0.63;76.85;98360.39;1674299;85;21028;-82
2022/01/21 12:39:46;;;;;;;14.27;5.83;;;;;;;-0.65;77.06;98361.60;1675967;85;22252;-83
2022/01/21 12:42:27;;;;;;;10.23;5.07;;;;;;;-0.64;77.52;98378.56;1650425;85;21488;-85